Time,TemperatureF,DewpointF,PressureIn,WindDirection,WindDirectionDegrees,WindSpeedMPH,WindSpeedGustMPH,Humidity,HourlyPrecipIn,Conditions,Clouds,dailyrainin,SoftwareType,DateUTC
2013-10-11 00:02:00,49.4,48.6,30.08,SW,223,0.0,0.0,97,0.00,,---,0.13,VWS V13.00,2013-10-11 07:02:00,
2013-10-11 00:07:00,49.2,48.4,30.09,SW,223,0.0,0.0,97,0.00,,---,0.00,VWS V13.00,2013-10-11 07:07:00,
2013-10-11 00:12:00,49.2,48.4,30.09,SW,223,0.0,0.0,97,0.00,,---,0.00,VWS V13.00,2013-10-11 07:12:00,
2013-10-11 00:17:00,49.2,48.4,30.09,SW,223,0.0,0.0,97,0.00,,---,0.00,VWS V13.00,2013-10-11 07:17:00,
2013-10-11 00:22:00,49.2,48.4,30.08,SW,223,0.0,0.0,97,0.00,,---,0.00,VWS V13.00,2013-10-11 07:22:00,
2013-10-11 00:27:00,49.1,48.3,30.08,SW,223,0.0,0.0,97,0.00,,---,0.00,VWS V13.00,2013-10-11 07:27:00,
2013-10-11 00:32:00,49.1,48.3,30.08,SW,223,0.0,0.0,97,0.00,,---,0.00,VWS V13.00,2013-10-11 07:32:00,
2013-10-11 00:37:00,49.1,48.3,30.08,SW,223,0.0,0.0,97,0.00,,---,0.00,VWS V13.00,2013-10-11 07:37:00,
2013-10-11 00:42:00,49.1,48.3,30.08,SW,223,0.0,0.0,97,0.00,,---,0.00,VWS V13.00,2013-10-11 07:42:00,
2013-10-11 00:47:00,49.1,48.3,30.08,SW,223,0.0,0.0,97,0.00,,---,0.00,VWS V13.00,2013-10-11 07:47:00,
2013-10-11 00:52:00,49.1,48.3,30.09,SW,223,0.0,0.0,97,0.00,,---,0.00,VWS V13.00,2013-10-11 07:52:00,
2013-10-11 00:57:00,49.1,48.3,30.09,SW,223,0.0,0.0,97,0.00,,---,0.00,VWS V13.00,2013-10-11 07:57:00,
2013-10-11 01:02:00,48.9,48.1,30.09,SW,223,0.0,0.0,97,0.00,,---,0.00,VWS V13.00,2013-10-11 08:02:00,
2013-10-11 01:07:00,48.9,48.1,30.08,SW,223,0.0,0.0,97,0.00,,---,0.00,VWS V13.00,2013-10-11 08:07:00,
2013-10-11 01:12:00,48.9,48.1,30.08,SW,224,0.0,0.0,97,0.00,,---,0.00,VWS V13.00,2013-10-11 08:12:00,
2013-10-11 01:17:00,48.8,48.0,30.08,SW,224,0.0,0.0,97,0.00,,---,0.00,VWS V13.00,2013-10-11 08:17:00,
2013-10-11 01:22:00,48.8,48.0,30.09,SW,224,0.0,0.0,97,0.00,,---,0.00,VWS V13.00,2013-10-11 08:22:00,
2013-10-11 01:27:00,48.8,48.0,30.09,SW,224,0.0,0.0,97,0.00,,---,0.00,VWS V13.00,2013-10-11 08:27:00,
2013-10-11 01:32:00,48.6,47.8,30.09,SW,224,0.0,0.0,97,0.00,,---,0.00,VWS V13.00,2013-10-11 08:32:00,
2013-10-11 01:37:00,48.6,47.8,30.09,SW,224,0.0,0.0,97,0.00,,---,0.00,VWS V13.00,2013-10-11 08:37:00,
2013-10-11 01:42:00,48.5,47.7,30.09,SW,224,0.0,0.0,97,0.00,,---,0.00,VWS V13.00,2013-10-11 08:42:00,
2013-10-11 01:46:00,48.5,47.7,30.09,SW,223,0.0,0.0,97,0.00,,---,0.00,VWS V13.00,2013-10-11 08:46:00,
2013-10-11 01:51:00,48.3,47.5,30.09,SW,223,0.0,0.0,97,0.00,,---,0.00,VWS V13.00,2013-10-11 08:51:00,
2013-10-11 01:56:00,48.3,47.5,30.09,SW,224,0.0,0.0,97,0.00,,---,0.00,VWS V13.00,2013-10-11 08:56:00,
2013-10-11 02:01:00,48.2,47.4,30.09,SW,224,0.0,0.0,97,0.00,,---,0.00,VWS V13.00,2013-10-11 09:01:00,
2013-10-11 02:06:00,48.0,47.2,30.09,SW,224,0.0,0.0,97,0.00,,---,0.00,VWS V13.00,2013-10-11 09:06:00,
2013-10-11 02:11:00,48.0,47.2,30.09,SW,224,0.0,0.0,97,0.00,,---,0.00,VWS V13.00,2013-10-11 09:11:00,
2013-10-11 02:16:00,47.9,47.1,30.09,SW,224,0.0,0.0,97,0.00,,---,0.00,VWS V13.00,2013-10-11 09:16:00,
2013-10-11 02:21:00,47.9,47.1,30.10,SW,223,0.0,0.0,97,0.00,,---,0.00,VWS V13.00,2013-10-11 09:21:00,
2013-10-11 02:26:00,47.7,46.9,30.10,SW,224,0.0,0.0,97,0.00,,---,0.00,VWS V13.00,2013-10-11 09:26:00,
2013-10-11 02:31:00,47.7,46.9,30.10,SW,224,0.0,0.0,97,0.00,,---,0.00,VWS V13.00,2013-10-11 09:31:00,
2013-10-11 02:36:00,47.7,46.9,30.10,SW,224,0.0,0.0,97,0.00,,---,0.00,VWS V13.00,2013-10-11 09:36:00,
2013-10-11 02:41:00,47.6,46.8,30.10,SW,224,0.0,0.0,97,0.00,,---,0.00,VWS V13.00,2013-10-11 09:41:00,
2013-10-11 02:46:00,47.6,46.8,30.10,SW,224,0.0,0.0,97,0.00,,---,0.00,VWS V13.00,2013-10-11 09:46:00,
2013-10-11 02:51:00,47.6,46.8,30.11,SW,224,0.0,0.0,97,0.00,,---,0.00,VWS V13.00,2013-10-11 09:51:00,
2013-10-11 02:56:00,47.6,46.8,30.11,SW,224,0.0,0.0,97,0.00,,---,0.00,VWS V13.00,2013-10-11 09:56:00,
2013-10-11 03:01:00,47.3,46.5,30.11,SW,224,0.0,0.0,97,0.00,,---,0.00,VWS V13.00,2013-10-11 10:01:00,
2013-10-11 03:06:00,47.1,46.3,30.12,SW,224,0.0,0.0,97,0.00,,---,0.00,VWS V13.00,2013-10-11 10:06:00,
2013-10-11 03:11:00,46.8,46.0,30.12,SW,223,0.0,0.0,97,0.00,,---,0.00,VWS V13.00,2013-10-11 10:11:00,
2013-10-11 03:16:00,46.8,46.0,30.12,SW,224,0.0,0.0,97,0.00,,---,0.00,VWS V13.00,2013-10-11 10:16:00,
2013-10-11 03:21:00,46.5,45.7,30.12,SW,224,0.0,0.0,97,0.00,,---,0.00,VWS V13.00,2013-10-11 10:21:00,
2013-10-11 03:26:00,46.4,45.6,30.12,SW,223,0.0,0.0,97,0.00,,---,0.00,VWS V13.00,2013-10-11 10:26:00,
2013-10-11 03:31:00,46.4,45.6,30.12,SW,224,0.0,0.0,97,0.00,,---,0.00,VWS V13.00,2013-10-11 10:31:00,
2013-10-11 03:36:00,46.0,44.9,30.12,SW,224,0.0,0.0,96,0.00,,---,0.00,VWS V13.00,2013-10-11 10:36:00,
2013-10-11 03:41:00,45.8,44.7,30.12,SW,223,0.0,0.0,96,0.00,,---,0.00,VWS V13.00,2013-10-11 10:41:00,
2013-10-11 03:46:00,45.8,44.7,30.12,SW,223,0.0,0.0,96,0.00,,---,0.00,VWS V13.00,2013-10-11 10:46:00,
2013-10-11 03:51:00,45.7,44.6,30.12,SW,224,0.0,0.0,96,0.00,,---,0.00,VWS V13.00,2013-10-11 10:51:00,
2013-10-11 03:56:00,45.7,44.9,30.12,SW,224,0.0,0.0,97,0.00,,---,0.00,VWS V13.00,2013-10-11 10:56:00,
2013-10-11 04:01:00,45.5,44.7,30.12,SW,223,0.0,0.0,97,0.00,,---,0.00,VWS V13.00,2013-10-11 11:01:00,
2013-10-11 04:06:00,45.5,44.7,30.12,SW,224,0.0,0.0,97,0.00,,---,0.00,VWS V13.00,2013-10-11 11:06:00,
2013-10-11 04:11:00,45.4,44.6,30.12,SW,224,0.0,0.0,97,0.00,,---,0.00,VWS V13.00,2013-10-11 11:11:00,
2013-10-11 04:16:00,45.4,44.6,30.12,SW,223,0.0,0.0,97,0.00,,---,0.00,VWS V13.00,2013-10-11 11:16:00,
2013-10-11 04:21:00,45.2,44.4,30.12,SW,223,0.0,0.0,97,0.00,,---,0.00,VWS V13.00,2013-10-11 11:21:00,
2013-10-11 04:26:00,45.2,44.4,30.12,SW,224,0.0,0.0,97,0.00,,---,0.00,VWS V13.00,2013-10-11 11:26:00,
2013-10-11 04:31:00,45.1,44.3,30.12,SW,224,0.0,0.0,97,0.00,,---,0.00,VWS V13.00,2013-10-11 11:31:00,
2013-10-11 04:36:00,45.1,44.3,30.12,SW,224,0.0,0.0,97,0.00,,---,0.00,VWS V13.00,2013-10-11 11:36:00,
2013-10-11 04:41:00,44.9,44.1,30.12,SW,224,0.0,0.0,97,0.00,,---,0.00,VWS V13.00,2013-10-11 11:41:00,
2013-10-11 04:46:00,44.9,44.1,30.12,SW,224,0.0,0.0,97,0.00,,---,0.00,VWS V13.00,2013-10-11 11:46:00,
2013-10-11 04:51:00,44.8,44.0,30.11,SW,224,0.0,0.0,97,0.00,,---,0.00,VWS V13.00,2013-10-11 11:51:00,
2013-10-11 04:56:00,44.6,43.8,30.11,SW,224,0.0,0.0,97,0.00,,---,0.00,VWS V13.00,2013-10-11 11:56:00,
2013-10-11 05:01:00,44.5,43.7,30.11,SW,224,0.0,0.0,97,0.00,,---,0.00,VWS V13.00,2013-10-11 12:01:00,
2013-10-11 05:06:00,44.3,43.5,30.12,SW,224,0.0,0.0,97,0.00,,---,0.00,VWS V13.00,2013-10-11 12:06:00,
2013-10-11 05:11:00,44.3,43.5,30.12,SW,224,0.0,0.0,97,0.00,,---,0.00,VWS V13.00,2013-10-11 12:11:00,
2013-10-11 05:16:00,44.2,43.4,30.12,SW,224,0.0,0.0,97,0.00,,---,0.00,VWS V13.00,2013-10-11 12:16:00,
2013-10-11 05:21:00,43.9,43.1,30.12,SW,224,0.0,0.0,97,0.00,,---,0.00,VWS V13.00,2013-10-11 12:21:00,
2013-10-11 05:26:00,43.8,43.0,30.12,SW,224,0.0,0.0,97,0.00,,---,0.00,VWS V13.00,2013-10-11 12:26:00,
2013-10-11 05:31:00,43.8,43.0,30.12,SW,224,0.0,0.0,97,0.00,,---,0.00,VWS V13.00,2013-10-11 12:31:00,
2013-10-11 05:36:00,43.6,42.8,30.13,SW,224,0.0,0.0,97,0.00,,---,0.00,VWS V13.00,2013-10-11 12:36:00,
2013-10-11 05:41:00,43.3,42.5,30.13,SW,224,0.0,0.0,97,0.00,,---,0.00,VWS V13.00,2013-10-11 12:41:00,
2013-10-11 05:46:00,43.3,42.5,30.13,SW,224,0.0,0.0,97,0.00,,---,0.00,VWS V13.00,2013-10-11 12:46:00,
2013-10-11 05:51:00,43.2,42.4,30.13,SW,224,0.0,0.0,97,0.00,,---,0.00,VWS V13.00,2013-10-11 12:51:00,
2013-10-11 05:56:00,43.1,42.3,30.13,SW,224,0.0,0.0,97,0.00,,---,0.00,VWS V13.00,2013-10-11 12:56:00,
2013-10-11 06:01:00,43.1,42.3,30.13,SW,224,0.0,0.0,97,0.00,,---,0.00,VWS V13.00,2013-10-11 13:01:00,
2013-10-11 06:06:00,42.9,42.1,30.13,SW,224,0.0,0.0,97,0.00,,---,0.00,VWS V13.00,2013-10-11 13:06:00,
2013-10-11 06:11:00,42.9,42.1,30.13,SW,224,0.0,0.0,97,0.00,,---,0.00,VWS V13.00,2013-10-11 13:11:00,
2013-10-11 06:16:00,42.8,42.0,30.13,SW,224,0.0,0.0,97,0.00,,---,0.00,VWS V13.00,2013-10-11 13:16:00,
2013-10-11 06:21:00,42.8,42.0,30.13,SW,224,0.0,0.0,97,0.00,,---,0.00,VWS V13.00,2013-10-11 13:21:00,
2013-10-11 06:26:00,42.8,42.0,30.13,SW,224,0.0,0.0,97,0.00,,---,0.00,VWS V13.00,2013-10-11 13:26:00,
2013-10-11 06:31:00,42.5,41.7,30.13,SW,223,0.0,0.0,97,0.00,,---,0.00,VWS V13.00,2013-10-11 13:31:00,
2013-10-11 06:36:00,42.5,41.7,30.13,SW,224,0.0,0.0,97,0.00,,---,0.00,VWS V13.00,2013-10-11 13:36:00,
2013-10-11 06:41:00,42.3,41.5,30.13,SW,224,0.0,0.0,97,0.00,,---,0.00,VWS V13.00,2013-10-11 13:41:00,
2013-10-11 06:46:00,42.3,41.5,30.13,SW,224,0.0,0.0,97,0.00,,---,0.00,VWS V13.00,2013-10-11 13:46:00,
2013-10-11 06:51:00,42.2,41.4,30.14,SW,224,0.0,0.0,97,0.00,,---,0.00,VWS V13.00,2013-10-11 13:51:00,
2013-10-11 06:56:00,42.2,41.4,30.14,SW,224,0.0,0.0,97,0.00,,---,0.00,VWS V13.00,2013-10-11 13:56:00,
2013-10-11 07:01:00,42.2,41.4,30.14,SW,224,0.0,0.0,97,0.00,,---,0.00,VWS V13.00,2013-10-11 14:01:00,
2013-10-11 07:06:00,42.2,41.4,30.14,SW,224,0.0,0.0,97,0.00,,---,0.00,VWS V13.00,2013-10-11 14:06:00,
2013-10-11 07:11:00,42.2,41.4,30.14,SW,223,0.0,0.0,97,0.00,,---,0.00,VWS V13.00,2013-10-11 14:11:00,
2013-10-11 07:16:00,42.2,41.4,30.14,SW,224,0.0,0.0,97,0.00,,---,0.00,VWS V13.00,2013-10-11 14:16:00,
2013-10-11 07:21:00,42.2,41.4,30.14,SW,224,0.0,0.0,97,0.00,,---,0.00,VWS V13.00,2013-10-11 14:21:00,
2013-10-11 07:26:00,42.2,41.4,30.14,SW,224,0.0,0.0,97,0.00,,---,0.00,VWS V13.00,2013-10-11 14:26:00,
2013-10-11 07:31:00,42.2,41.4,30.14,SW,224,0.0,0.0,97,0.00,,---,0.00,VWS V13.00,2013-10-11 14:31:00,
2013-10-11 07:36:00,42.2,41.4,30.14,SW,223,0.0,0.0,97,0.00,,---,0.00,VWS V13.00,2013-10-11 14:36:00,
2013-10-11 07:41:00,42.2,41.4,30.14,SW,224,0.0,0.0,97,0.00,,---,0.00,VWS V13.00,2013-10-11 14:41:00,
2013-10-11 07:46:00,42.3,41.5,30.14,SW,224,0.0,0.0,97,0.00,,---,0.00,VWS V13.00,2013-10-11 14:46:00,
2013-10-11 07:51:00,42.3,41.5,30.14,SW,224,0.0,0.0,97,0.00,,---,0.00,VWS V13.00,2013-10-11 14:51:00,
2013-10-11 07:56:00,42.5,41.7,30.14,SW,224,0.0,0.0,97,0.00,,---,0.00,VWS V13.00,2013-10-11 14:56:00,
2013-10-11 08:01:00,42.5,41.7,30.14,SW,223,0.0,0.0,97,0.00,,---,0.00,VWS V13.00,2013-10-11 15:01:00,
2013-10-11 08:06:00,42.6,41.8,30.14,SW,224,0.0,0.0,97,0.00,,---,0.00,VWS V13.00,2013-10-11 15:06:00,
2013-10-11 08:11:00,42.6,41.8,30.14,SW,224,0.0,0.0,97,0.00,,---,0.00,VWS V13.00,2013-10-11 15:11:00,
2013-10-11 08:16:00,42.6,41.8,30.14,SW,223,0.0,0.0,97,0.00,,---,0.00,VWS V13.00,2013-10-11 15:16:00,
2013-10-11 08:21:00,42.8,42.0,30.15,SW,224,0.0,0.0,97,0.00,,---,0.00,VWS V13.00,2013-10-11 15:21:00,
2013-10-11 08:26:00,42.9,42.1,30.15,SW,223,0.0,0.0,97,0.00,,---,0.00,VWS V13.00,2013-10-11 15:26:00,
2013-10-11 08:31:00,43.1,42.3,30.15,SW,224,0.0,0.0,97,0.00,,---,0.00,VWS V13.00,2013-10-11 15:31:00,
2013-10-11 08:36:00,43.1,42.3,30.15,SW,224,0.0,0.0,97,0.00,,---,0.00,VWS V13.00,2013-10-11 15:36:00,
2013-10-11 08:41:00,43.2,42.4,30.15,SW,223,0.0,0.0,97,0.00,,---,0.00,VWS V13.00,2013-10-11 15:41:00,
2013-10-11 08:46:00,43.3,42.8,30.15,SW,224,0.0,0.0,98,0.00,,---,0.00,VWS V13.00,2013-10-11 15:46:00,
2013-10-11 08:51:00,43.3,42.8,30.15,SW,223,0.0,0.0,98,0.00,,---,0.00,VWS V13.00,2013-10-11 15:51:00,
2013-10-11 08:56:00,43.5,43.0,30.15,SW,224,0.0,0.0,98,0.00,,---,0.00,VWS V13.00,2013-10-11 15:56:00,
2013-10-11 09:01:00,43.6,43.1,30.15,SW,223,0.0,0.0,98,0.00,,---,0.00,VWS V13.00,2013-10-11 16:01:00,
2013-10-11 09:06:00,43.8,43.3,30.15,SW,224,0.0,0.0,98,0.00,,---,0.00,VWS V13.00,2013-10-11 16:06:00,
2013-10-11 09:11:00,44.3,43.8,30.15,SW,224,0.0,0.0,98,0.01,,---,0.01,VWS V13.00,2013-10-11 16:11:00,
2013-10-11 09:16:00,44.5,44.0,30.15,SW,224,0.0,0.0,98,0.01,,---,0.01,VWS V13.00,2013-10-11 16:16:00,
2013-10-11 09:21:00,45.2,44.7,30.15,SW,224,0.0,0.0,98,0.01,,---,0.01,VWS V13.00,2013-10-11 16:21:00,
2013-10-11 09:26:00,45.5,45.0,30.15,SW,224,0.0,0.0,98,0.01,,---,0.01,VWS V13.00,2013-10-11 16:26:00,
2013-10-11 09:31:00,45.5,45.0,30.15,SW,224,0.0,0.0,98,0.01,,---,0.01,VWS V13.00,2013-10-11 16:31:00,
2013-10-11 09:36:00,46.4,45.9,30.15,SW,224,0.0,0.0,98,0.01,,---,0.01,VWS V13.00,2013-10-11 16:36:00,
2013-10-11 09:41:00,46.4,45.9,30.15,SW,224,0.0,0.0,98,0.01,,---,0.01,VWS V13.00,2013-10-11 16:41:00,
2013-10-11 09:46:00,46.8,46.3,30.15,SW,224,0.0,0.0,98,0.01,,---,0.01,VWS V13.00,2013-10-11 16:46:00,
2013-10-11 09:51:00,46.8,46.3,30.16,SW,224,0.0,0.0,98,0.01,,---,0.01,VWS V13.00,2013-10-11 16:51:00,
2013-10-11 09:56:00,46.8,46.3,30.16,SW,224,0.0,0.0,98,0.01,,---,0.01,VWS V13.00,2013-10-11 16:56:00,
2013-10-11 10:01:00,47.4,46.9,30.16,SW,224,0.0,0.0,98,0.01,,---,0.01,VWS V13.00,2013-10-11 17:01:00,
2013-10-11 10:06:00,48.0,47.5,30.16,SW,224,0.0,0.0,98,0.01,,---,0.01,VWS V13.00,2013-10-11 17:06:00,
2013-10-11 10:11:00,48.6,48.1,30.16,SW,224,0.0,0.0,98,0.01,,---,0.01,VWS V13.00,2013-10-11 17:11:00,
2013-10-11 10:16:00,48.8,47.7,30.16,SW,224,0.0,0.0,96,0.01,,---,0.01,VWS V13.00,2013-10-11 17:16:00,
2013-10-11 10:21:00,48.6,47.5,30.15,SW,224,0.0,0.0,96,0.01,,---,0.01,VWS V13.00,2013-10-11 17:21:00,
2013-10-11 10:26:00,49.2,47.8,30.15,SW,224,0.0,0.0,95,0.01,,---,0.01,VWS V13.00,2013-10-11 17:26:00,
2013-10-11 10:31:00,50.8,49.4,30.15,SW,224,0.0,0.0,95,0.01,,---,0.01,VWS V13.00,2013-10-11 17:31:00,
2013-10-11 10:36:00,51.6,50.2,30.15,SW,224,0.0,0.0,95,0.01,,---,0.01,VWS V13.00,2013-10-11 17:36:00,
2013-10-11 10:41:00,51.7,50.3,30.15,SW,224,0.0,0.0,95,0.00,,---,0.01,VWS V13.00,2013-10-11 17:41:00,
2013-10-11 10:46:00,51.1,49.7,30.15,SW,224,0.0,0.0,95,0.00,,---,0.01,VWS V13.00,2013-10-11 17:46:00,
2013-10-11 10:51:00,51.3,49.9,30.15,SW,224,0.0,0.0,95,0.00,,---,0.01,VWS V13.00,2013-10-11 17:51:00,
2013-10-11 10:56:00,52.2,50.0,30.15,SW,224,0.0,0.0,92,0.00,,---,0.01,VWS V13.00,2013-10-11 17:56:00,
2013-10-11 11:01:00,52.3,49.2,30.15,SW,224,0.0,0.0,89,0.00,,---,0.01,VWS V13.00,2013-10-11 18:01:00,
2013-10-11 11:06:00,52.8,49.7,30.15,SW,224,0.0,0.0,89,0.00,,---,0.01,VWS V13.00,2013-10-11 18:06:00,
2013-10-11 11:11:00,52.8,49.7,30.15,SW,224,0.0,0.0,89,0.00,,---,0.01,VWS V13.00,2013-10-11 18:11:00,
2013-10-11 11:16:00,53.1,48.7,30.15,SW,224,0.0,0.0,85,0.00,,---,0.01,VWS V13.00,2013-10-11 18:16:00,
2013-10-11 11:21:00,52.9,48.5,30.15,SW,224,0.0,0.0,85,0.00,,---,0.01,VWS V13.00,2013-10-11 18:21:00,
2013-10-11 11:26:00,52.6,48.2,30.15,SW,224,0.0,0.0,85,0.00,,---,0.01,VWS V13.00,2013-10-11 18:26:00,
2013-10-11 11:31:00,53.1,49.7,30.15,SW,224,0.0,0.0,88,0.00,,---,0.01,VWS V13.00,2013-10-11 18:31:00,
2013-10-11 11:36:00,52.8,49.3,30.15,SW,224,0.0,0.0,88,0.00,,---,0.01,VWS V13.00,2013-10-11 18:36:00,
2013-10-11 11:41:00,52.8,49.0,30.15,SW,224,0.0,0.0,87,0.00,,---,0.01,VWS V13.00,2013-10-11 18:41:00,
2013-10-11 11:46:00,54.1,50.3,30.15,SW,224,0.0,0.0,87,0.00,,---,0.01,VWS V13.00,2013-10-11 18:46:00,
2013-10-11 11:51:00,54.1,50.3,30.14,SW,224,0.0,0.0,87,0.00,,---,0.01,VWS V13.00,2013-10-11 18:51:00,
2013-10-11 11:56:00,54.1,50.3,30.14,SW,224,0.0,0.0,87,0.00,,---,0.01,VWS V13.00,2013-10-11 18:56:00,
2013-10-11 12:01:00,54.1,49.7,30.14,SW,224,0.0,0.0,85,0.00,,---,0.01,VWS V13.00,2013-10-11 19:01:00,
2013-10-11 12:06:00,54.1,49.7,30.14,SW,224,0.0,0.0,85,0.00,,---,0.01,VWS V13.00,2013-10-11 19:06:00,
2013-10-11 12:11:00,53.8,49.4,30.14,SW,224,0.0,0.0,85,0.00,,---,0.01,VWS V13.00,2013-10-11 19:11:00,
2013-10-11 12:16:00,53.9,49.5,30.14,SW,224,0.0,0.0,85,0.00,,---,0.01,VWS V13.00,2013-10-11 19:16:00,
2013-10-11 12:21:00,53.8,49.4,30.14,SW,224,0.0,0.0,85,0.00,,---,0.01,VWS V13.00,2013-10-11 19:21:00,
2013-10-11 12:25:00,54.1,49.7,30.14,SW,224,0.0,0.0,85,0.00,,---,0.01,VWS V13.00,2013-10-11 19:25:00,
2013-10-11 12:30:00,54.2,49.8,30.14,SW,224,0.0,0.0,85,0.00,,---,0.01,VWS V13.00,2013-10-11 19:30:00,
2013-10-11 12:35:00,55.7,51.3,30.14,SW,224,0.0,0.0,85,0.00,,---,0.01,VWS V13.00,2013-10-11 19:35:00,
2013-10-11 12:40:00,55.7,48.6,30.14,NW,304,0.0,0.0,77,0.00,,---,0.01,VWS V13.00,2013-10-11 19:40:00,
2013-10-11 12:45:00,56.2,49.1,30.14,NW,308,0.0,2.0,77,0.00,,---,0.01,VWS V13.00,2013-10-11 19:45:00,
2013-10-11 12:50:00,56.0,47.8,30.14,NW,308,0.0,2.0,74,0.00,,---,0.01,VWS V13.00,2013-10-11 19:50:00,
2013-10-11 12:55:00,56.5,48.3,30.13,NW,308,0.0,2.0,74,0.00,,---,0.01,VWS V13.00,2013-10-11 19:55:00,
2013-10-11 13:00:00,56.3,48.1,30.13,NW,308,0.0,2.0,74,0.00,,---,0.01,VWS V13.00,2013-10-11 20:00:00,
2013-10-11 13:05:00,56.3,48.1,30.13,NW,308,0.0,2.0,74,0.00,,---,0.01,VWS V13.00,2013-10-11 20:05:00,
2013-10-11 13:10:00,55.7,49.0,30.13,NNE,20,0.0,0.0,78,0.00,,---,0.01,VWS V13.00,2013-10-11 20:10:00,
2013-10-11 13:15:00,55.9,49.2,30.13,NNE,20,0.0,0.0,78,0.00,,---,0.01,VWS V13.00,2013-10-11 20:15:00,
2013-10-11 13:20:00,55.9,48.5,30.13,NNE,20,0.0,0.0,76,0.00,,---,0.01,VWS V13.00,2013-10-11 20:20:00,
2013-10-11 13:25:00,56.2,49.1,30.13,NNE,20,0.0,0.0,77,0.00,,---,0.01,VWS V13.00,2013-10-11 20:25:00,
2013-10-11 13:30:00,56.2,49.1,30.13,NNE,20,0.0,0.0,77,0.00,,---,0.01,VWS V13.00,2013-10-11 20:30:00,
2013-10-11 13:35:00,56.3,49.2,30.13,NNE,20,0.0,0.0,77,0.00,,---,0.01,VWS V13.00,2013-10-11 20:35:00,
2013-10-11 13:40:00,56.3,49.2,30.13,NNE,20,0.0,0.0,77,0.00,,---,0.01,VWS V13.00,2013-10-11 20:40:00,
2013-10-11 13:45:00,56.2,49.1,30.13,NNE,20,0.0,0.0,77,0.00,,---,0.01,VWS V13.00,2013-10-11 20:45:00,
2013-10-11 13:50:00,56.0,48.9,30.13,NNE,20,0.0,0.0,77,0.00,,---,0.01,VWS V13.00,2013-10-11 20:50:00,
2013-10-11 13:55:00,55.9,50.2,30.13,NNE,20,0.0,0.0,81,0.00,,---,0.01,VWS V13.00,2013-10-11 20:55:00,
2013-10-11 14:00:00,55.7,50.0,30.13,NNE,20,0.0,0.0,81,0.00,,---,0.01,VWS V13.00,2013-10-11 21:00:00,
2013-10-11 14:05:00,55.6,49.9,30.13,NNE,20,0.0,0.0,81,0.00,,---,0.01,VWS V13.00,2013-10-11 21:05:00,
2013-10-11 14:10:00,55.6,50.2,30.13,NNE,20,0.0,0.0,82,0.00,,---,0.01,VWS V13.00,2013-10-11 21:10:00,
2013-10-11 14:15:00,55.4,50.0,30.13,NNE,20,0.0,0.0,82,0.00,,---,0.01,VWS V13.00,2013-10-11 21:15:00,
2013-10-11 14:21:00,55.6,50.2,30.13,NNE,20,0.0,0.0,82,0.00,,---,0.01,VWS V13.00,2013-10-11 21:21:00,
2013-10-11 14:26:00,55.6,50.5,30.13,NNE,20,0.0,0.0,83,0.00,,---,0.01,VWS V13.00,2013-10-11 21:26:00,
2013-10-11 14:31:00,55.6,50.5,30.13,NNE,20,0.0,0.0,83,0.00,,---,0.01,VWS V13.00,2013-10-11 21:31:00,
2013-10-11 14:36:00,55.6,50.5,30.14,NNE,20,0.0,0.0,83,0.00,,---,0.01,VWS V13.00,2013-10-11 21:36:00,
2013-10-11 14:41:00,55.6,50.5,30.14,NNE,20,0.0,0.0,83,0.00,,---,0.01,VWS V13.00,2013-10-11 21:41:00,
2013-10-11 14:46:00,55.6,50.5,30.14,NNE,20,0.0,0.0,83,0.00,,---,0.01,VWS V13.00,2013-10-11 21:46:00,
2013-10-11 14:51:00,55.6,50.2,30.13,NNE,20,0.0,0.0,82,0.00,,---,0.01,VWS V13.00,2013-10-11 21:51:00,
2013-10-11 14:56:00,55.6,50.2,30.13,NNE,20,0.0,0.0,82,0.00,,---,0.01,VWS V13.00,2013-10-11 21:56:00,
2013-10-11 15:01:00,55.6,49.9,30.13,NNE,20,0.0,0.0,81,0.00,,---,0.01,VWS V13.00,2013-10-11 22:01:00,
2013-10-11 15:06:00,55.4,50.0,30.13,NNE,20,0.0,0.0,82,0.00,,---,0.01,VWS V13.00,2013-10-11 22:06:00,
2013-10-11 15:11:00,55.3,49.6,30.13,NNE,20,0.0,0.0,81,0.00,,---,0.01,VWS V13.00,2013-10-11 22:11:00,
2013-10-11 15:16:00,55.3,49.6,30.13,NNE,20,0.0,0.0,81,0.00,,---,0.01,VWS V13.00,2013-10-11 22:16:00,
2013-10-11 15:21:00,55.3,49.6,30.13,NNE,20,0.0,0.0,81,0.00,,---,0.01,VWS V13.00,2013-10-11 22:21:00,
2013-10-11 15:26:00,55.1,49.4,30.13,NNE,20,0.0,0.0,81,0.00,,---,0.01,VWS V13.00,2013-10-11 22:26:00,
2013-10-11 15:31:00,55.1,50.0,30.13,NNE,20,0.0,0.0,83,0.00,,---,0.01,VWS V13.00,2013-10-11 22:31:00,
2013-10-11 15:36:00,55.0,49.9,30.13,NNE,20,0.0,0.0,83,0.00,,---,0.01,VWS V13.00,2013-10-11 22:36:00,
2013-10-11 15:41:00,54.8,49.7,30.13,NNE,20,0.0,0.0,83,0.00,,---,0.01,VWS V13.00,2013-10-11 22:41:00,
2013-10-11 15:46:00,54.8,49.7,30.13,NNE,20,0.0,0.0,83,0.00,,---,0.01,VWS V13.00,2013-10-11 22:46:00,
2013-10-11 15:50:00,54.5,50.1,30.13,NNE,20,0.0,0.0,85,0.00,,---,0.01,VWS V13.00,2013-10-11 22:50:00,
2013-10-11 15:55:00,54.4,50.0,30.13,NNE,20,0.0,0.0,85,0.00,,---,0.01,VWS V13.00,2013-10-11 22:55:00,
2013-10-11 16:00:00,54.4,50.0,30.13,NNE,20,0.0,0.0,85,0.00,,---,0.01,VWS V13.00,2013-10-11 23:00:00,
2013-10-11 16:05:00,54.2,49.8,30.13,NNE,20,0.0,0.0,85,0.00,,---,0.01,VWS V13.00,2013-10-11 23:05:00,
2013-10-11 16:10:00,54.1,50.0,30.13,NNE,20,0.0,0.0,86,0.00,,---,0.01,VWS V13.00,2013-10-11 23:10:00,
2013-10-11 16:15:00,53.9,49.8,30.13,NNE,20,0.0,0.0,86,0.00,,---,0.01,VWS V13.00,2013-10-11 23:15:00,
2013-10-11 16:20:00,53.9,49.8,30.13,NNE,20,0.0,0.0,86,0.00,,---,0.01,VWS V13.00,2013-10-11 23:20:00,
2013-10-11 16:25:00,53.8,50.0,30.13,NNE,20,0.0,0.0,87,0.00,,---,0.01,VWS V13.00,2013-10-11 23:25:00,
2013-10-11 16:30:00,53.6,50.1,30.13,NNE,20,0.0,0.0,88,0.00,,---,0.01,VWS V13.00,2013-10-11 23:30:00,
2013-10-11 16:35:00,53.5,50.0,30.13,NNE,20,0.0,0.0,88,0.00,,---,0.01,VWS V13.00,2013-10-11 23:35:00,
2013-10-11 16:40:00,53.5,50.0,30.13,NNE,20,0.0,0.0,88,0.00,,---,0.01,VWS V13.00,2013-10-11 23:40:00,
2013-10-11 16:45:00,53.3,49.8,30.13,NNE,20,0.0,0.0,88,0.00,,---,0.01,VWS V13.00,2013-10-11 23:45:00,
2013-10-11 16:50:00,53.2,49.7,30.13,NNE,20,0.0,0.0,88,0.00,,---,0.01,VWS V13.00,2013-10-11 23:50:00,
2013-10-11 16:55:00,53.2,50.7,30.13,NNE,20,0.0,0.0,91,0.00,,---,0.01,VWS V13.00,2013-10-11 23:55:00,
2013-10-11 17:00:00,53.1,50.5,30.13,NNE,20,0.0,0.0,91,0.00,,---,0.01,VWS V13.00,2013-10-12 00:00:00,
2013-10-11 17:05:00,53.1,50.5,30.13,NNE,20,0.0,0.0,91,0.00,,---,0.01,VWS V13.00,2013-10-12 00:05:00,
2013-10-11 17:10:00,53.1,50.5,30.13,NNE,20,0.0,0.0,91,0.00,,---,0.01,VWS V13.00,2013-10-12 00:10:00,
2013-10-11 17:15:00,52.9,50.3,30.13,NNE,20,0.0,0.0,91,0.00,,---,0.01,VWS V13.00,2013-10-12 00:15:00,
2013-10-11 17:20:00,52.9,50.3,30.13,NNE,20,0.0,0.0,91,0.00,,---,0.01,VWS V13.00,2013-10-12 00:20:00,
2013-10-11 17:25:00,52.9,50.3,30.12,NNE,20,0.0,0.0,91,0.00,,---,0.01,VWS V13.00,2013-10-12 00:25:00,
2013-10-11 17:30:00,52.9,50.3,30.12,NNE,20,0.0,0.0,91,0.00,,---,0.01,VWS V13.00,2013-10-12 00:30:00,
2013-10-11 17:35:00,52.8,50.5,30.12,NNE,20,0.0,0.0,92,0.00,,---,0.01,VWS V13.00,2013-10-12 00:35:00,
2013-10-11 17:40:00,52.8,50.5,30.12,NNE,20,0.0,0.0,92,0.00,,---,0.01,VWS V13.00,2013-10-12 00:40:00,
2013-10-11 17:45:00,52.8,50.5,30.12,NNE,20,0.0,0.0,92,0.00,,---,0.01,VWS V13.00,2013-10-12 00:45:00,
2013-10-11 17:50:00,52.8,50.5,30.12,NNE,20,0.0,0.0,92,0.00,,---,0.01,VWS V13.00,2013-10-12 00:50:00,
2013-10-11 17:55:00,52.8,50.5,30.11,NNE,20,0.0,0.0,92,0.00,,---,0.01,VWS V13.00,2013-10-12 00:55:00,
2013-10-11 18:00:00,52.8,50.5,30.11,NNE,20,0.0,0.0,92,0.00,,---,0.01,VWS V13.00,2013-10-12 01:00:00,
2013-10-11 18:05:00,52.8,50.5,30.11,NNE,20,0.0,0.0,92,0.00,,---,0.01,VWS V13.00,2013-10-12 01:05:00,
2013-10-11 18:10:00,52.8,50.5,30.11,NNE,20,0.0,0.0,92,0.00,,---,0.01,VWS V13.00,2013-10-12 01:10:00,
2013-10-11 18:15:00,52.8,50.5,30.11,NNE,20,0.0,0.0,92,0.00,,---,0.01,VWS V13.00,2013-10-12 01:15:00,
2013-10-11 18:21:00,52.8,50.5,30.11,NNE,20,0.0,0.0,92,0.00,,---,0.01,VWS V13.00,2013-10-12 01:21:00,
2013-10-11 18:26:00,52.6,50.3,30.11,NNE,20,0.0,0.0,92,0.00,,---,0.01,VWS V13.00,2013-10-12 01:26:00,
2013-10-11 18:31:00,52.5,50.2,30.11,NNE,20,0.0,0.0,92,0.00,,---,0.01,VWS V13.00,2013-10-12 01:31:00,
2013-10-11 18:36:00,52.5,50.2,30.11,NNE,20,0.0,0.0,92,0.00,,---,0.01,VWS V13.00,2013-10-12 01:36:00,
2013-10-11 18:41:00,52.2,50.0,30.11,NNE,20,0.0,0.0,92,0.00,,---,0.01,VWS V13.00,2013-10-12 01:41:00,
2013-10-11 18:46:00,52.0,49.8,30.11,NNE,20,0.0,0.0,92,0.00,,---,0.01,VWS V13.00,2013-10-12 01:46:00,
2013-10-11 18:51:00,51.9,49.7,30.11,NNE,20,0.0,0.0,92,0.00,,---,0.01,VWS V13.00,2013-10-12 01:51:00,
2013-10-11 18:56:00,51.7,49.5,30.11,NNE,20,0.0,0.0,92,0.00,,---,0.01,VWS V13.00,2013-10-12 01:56:00,
2013-10-11 19:01:00,51.7,49.5,30.11,NNE,20,0.0,0.0,92,0.00,,---,0.01,VWS V13.00,2013-10-12 02:01:00,
2013-10-11 19:06:00,51.4,49.2,30.11,NNE,20,0.0,0.0,92,0.00,,---,0.01,VWS V13.00,2013-10-12 02:06:00,
2013-10-11 19:11:00,51.4,49.2,30.11,NNE,20,0.0,0.0,92,0.00,,---,0.01,VWS V13.00,2013-10-12 02:11:00,
2013-10-11 19:16:00,51.1,48.9,30.11,NNE,20,0.0,0.0,92,0.00,,---,0.01,VWS V13.00,2013-10-12 02:16:00,
2013-10-11 19:21:00,51.0,48.8,30.11,NNE,20,0.0,0.0,92,0.00,,---,0.01,VWS V13.00,2013-10-12 02:21:00,
2013-10-11 19:26:00,50.8,48.6,30.11,NNE,20,0.0,0.0,92,0.00,,---,0.01,VWS V13.00,2013-10-12 02:26:00,
2013-10-11 19:31:00,50.7,48.5,30.11,NNE,20,0.0,0.0,92,0.00,,---,0.01,VWS V13.00,2013-10-12 02:31:00,
2013-10-11 19:36:00,50.5,48.3,30.11,NNE,20,0.0,0.0,92,0.00,,---,0.01,VWS V13.00,2013-10-12 02:36:00,
2013-10-11 19:41:00,50.5,48.6,30.11,NNE,20,0.0,0.0,93,0.00,,---,0.01,VWS V13.00,2013-10-12 02:41:00,
2013-10-11 19:46:00,50.4,48.5,30.11,NNE,20,0.0,0.0,93,0.00,,---,0.01,VWS V13.00,2013-10-12 02:46:00,
2013-10-11 19:51:00,50.2,48.3,30.11,NNE,20,0.0,0.0,93,0.00,,---,0.01,VWS V13.00,2013-10-12 02:51:00,
2013-10-11 19:56:00,50.2,48.3,30.11,NNE,20,0.0,0.0,93,0.00,,---,0.01,VWS V13.00,2013-10-12 02:56:00,
2013-10-11 20:01:00,50.1,48.2,30.11,NNE,20,0.0,0.0,93,0.00,,---,0.01,VWS V13.00,2013-10-12 03:01:00,
2013-10-11 20:06:00,49.9,48.0,30.11,NNE,20,0.0,0.0,93,0.00,,---,0.01,VWS V13.00,2013-10-12 03:06:00,
2013-10-11 20:11:00,49.8,47.9,30.11,NNE,20,0.0,0.0,93,0.00,,---,0.01,VWS V13.00,2013-10-12 03:11:00,
2013-10-11 20:16:00,49.8,48.2,30.11,NNE,20,0.0,0.0,94,0.00,,---,0.01,VWS V13.00,2013-10-12 03:16:00,
2013-10-11 20:21:00,49.8,48.2,30.11,NNE,20,0.0,0.0,94,0.00,,---,0.01,VWS V13.00,2013-10-12 03:21:00,
2013-10-11 20:26:00,49.6,48.0,30.11,NNE,20,0.0,0.0,94,0.00,,---,0.01,VWS V13.00,2013-10-12 03:26:00,
2013-10-11 20:31:00,49.6,48.0,30.11,NNE,20,0.0,0.0,94,0.00,,---,0.01,VWS V13.00,2013-10-12 03:31:00,
2013-10-11 20:36:00,49.5,47.8,30.11,NNE,20,0.0,0.0,94,0.00,,---,0.01,VWS V13.00,2013-10-12 03:36:00,
2013-10-11 20:41:00,49.5,47.8,30.11,NNE,20,0.0,0.0,94,0.00,,---,0.01,VWS V13.00,2013-10-12 03:41:00,
2013-10-11 20:46:00,49.4,48.0,30.11,NNE,20,0.0,0.0,95,0.00,,---,0.01,VWS V13.00,2013-10-12 03:46:00,
2013-10-11 20:51:00,49.4,48.0,30.11,NNE,20,0.0,0.0,95,0.00,,---,0.01,VWS V13.00,2013-10-12 03:51:00,
2013-10-11 20:56:00,49.2,47.8,30.11,NNE,20,0.0,0.0,95,0.00,,---,0.01,VWS V13.00,2013-10-12 03:56:00,
2013-10-11 21:01:00,49.2,47.8,30.11,NNE,20,0.0,0.0,95,0.00,,---,0.01,VWS V13.00,2013-10-12 04:01:00,
2013-10-11 21:02:00,49.2,47.8,30.11,NNE,20,0.0,0.0,95,0.00,,---,0.01,VWS V13.00,2013-10-12 04:02:00,
2013-10-11 21:07:00,49.1,47.7,30.11,NNE,20,0.0,0.0,95,0.00,,---,0.01,VWS V13.00,2013-10-12 04:07:00,
2013-10-11 21:12:00,49.1,47.7,30.11,NNE,20,0.0,0.0,95,0.00,,---,0.01,VWS V13.00,2013-10-12 04:12:00,
2013-10-11 21:17:00,48.9,47.5,30.11,NNE,20,0.0,0.0,95,0.00,,---,0.01,VWS V13.00,2013-10-12 04:17:00,
2013-10-11 21:22:00,48.8,47.4,30.10,NNE,20,0.0,0.0,95,0.00,,---,0.01,VWS V13.00,2013-10-12 04:22:00,
2013-10-11 21:27:00,48.6,47.2,30.10,NNE,20,0.0,0.0,95,0.00,,---,0.01,VWS V13.00,2013-10-12 04:27:00,
2013-10-11 21:32:00,48.6,47.2,30.10,NNE,20,0.0,0.0,95,0.00,,---,0.01,VWS V13.00,2013-10-12 04:32:00,
2013-10-11 21:37:00,48.5,47.1,30.10,NNE,20,0.0,0.0,95,0.00,,---,0.01,VWS V13.00,2013-10-12 04:37:00,
2013-10-11 21:42:00,48.3,46.9,30.10,NNE,20,0.0,0.0,95,0.00,,---,0.01,VWS V13.00,2013-10-12 04:42:00,
2013-10-11 21:47:00,48.2,46.8,30.10,NNE,20,0.0,0.0,95,0.00,,---,0.01,VWS V13.00,2013-10-12 04:47:00,
2013-10-11 21:52:00,48.2,46.8,30.10,NNE,20,0.0,0.0,95,0.00,,---,0.01,VWS V13.00,2013-10-12 04:52:00,
2013-10-11 21:57:00,48.0,46.6,30.10,NNE,20,0.0,0.0,95,0.00,,---,0.01,VWS V13.00,2013-10-12 04:57:00,
2013-10-11 22:02:00,48.0,46.6,30.10,NNE,20,0.0,0.0,95,0.00,,---,0.01,VWS V13.00,2013-10-12 05:02:00,
2013-10-11 22:07:00,48.0,46.9,30.11,NNE,20,0.0,0.0,96,0.00,,---,0.01,VWS V13.00,2013-10-12 05:07:00,
2013-10-11 22:12:00,48.0,46.9,30.11,NNE,20,0.0,0.0,96,0.00,,---,0.01,VWS V13.00,2013-10-12 05:12:00,
2013-10-11 22:17:00,47.9,46.8,30.11,NNE,20,0.0,0.0,96,0.00,,---,0.01,VWS V13.00,2013-10-12 05:17:00,
2013-10-11 22:22:00,47.9,46.8,30.10,NNE,20,0.0,0.0,96,0.00,,---,0.01,VWS V13.00,2013-10-12 05:22:00,
2013-10-11 22:27:00,48.0,46.9,30.10,NNE,20,0.0,0.0,96,0.00,,---,0.01,VWS V13.00,2013-10-12 05:27:00,
2013-10-11 22:32:00,48.0,46.9,30.10,NNE,20,0.0,0.0,96,0.00,,---,0.01,VWS V13.00,2013-10-12 05:32:00,
2013-10-11 22:37:00,48.0,46.9,30.10,NNE,20,0.0,0.0,96,0.00,,---,0.01,VWS V13.00,2013-10-12 05:37:00,
2013-10-11 22:42:00,48.0,46.9,30.10,NNE,20,0.0,0.0,96,0.00,,---,0.01,VWS V13.00,2013-10-12 05:42:00,
2013-10-11 22:47:00,48.0,46.9,30.10,NNE,20,0.0,0.0,96,0.00,,---,0.01,VWS V13.00,2013-10-12 05:47:00,
2013-10-11 22:52:00,48.0,46.9,30.10,NNE,20,0.0,0.0,96,0.00,,---,0.01,VWS V13.00,2013-10-12 05:52:00,
2013-10-11 22:57:00,48.0,46.9,30.10,NNE,20,0.0,0.0,96,0.00,,---,0.01,VWS V13.00,2013-10-12 05:57:00,
2013-10-11 23:02:00,48.0,46.9,30.10,NNE,20,0.0,0.0,96,0.00,,---,0.01,VWS V13.00,2013-10-12 06:02:00,
2013-10-11 23:07:00,47.9,46.8,30.10,NNE,20,0.0,0.0,96,0.00,,---,0.01,VWS V13.00,2013-10-12 06:07:00,
2013-10-11 23:12:00,47.9,46.8,30.10,NNE,20,0.0,0.0,96,0.00,,---,0.01,VWS V13.00,2013-10-12 06:12:00,
2013-10-11 23:17:00,47.9,46.8,30.10,NNE,20,0.0,0.0,96,0.00,,---,0.01,VWS V13.00,2013-10-12 06:17:00,
2013-10-11 23:22:00,47.9,46.8,30.09,NNE,20,0.0,0.0,96,0.00,,---,0.01,VWS V13.00,2013-10-12 06:22:00,
2013-10-11 23:27:00,47.9,46.8,30.09,NNE,20,0.0,0.0,96,0.00,,---,0.01,VWS V13.00,2013-10-12 06:27:00,
2013-10-11 23:32:00,47.9,46.8,30.09,NNE,20,0.0,0.0,96,0.00,,---,0.01,VWS V13.00,2013-10-12 06:32:00,
2013-10-11 23:37:00,47.9,46.8,30.09,NNE,20,0.0,0.0,96,0.00,,---,0.01,VWS V13.00,2013-10-12 06:37:00,
2013-10-11 23:42:00,47.9,46.8,30.09,NNE,20,0.0,0.0,96,0.00,,---,0.01,VWS V13.00,2013-10-12 06:42:00,
2013-10-11 23:47:00,47.9,46.8,30.09,NNE,20,0.0,0.0,96,0.00,,---,0.01,VWS V13.00,2013-10-12 06:47:00,
2013-10-11 23:52:00,47.7,46.6,30.09,NNE,20,0.0,0.0,96,0.00,,---,0.01,VWS V13.00,2013-10-12 06:52:00,
2013-10-11 23:57:00,47.7,46.6,30.09,NNE,20,0.0,0.0,96,0.00,,---,0.01,VWS V13.00,2013-10-12 06:57:00,